Time;durP1;ratioP1;P1;durP2;ratioP2;P2;SDS_P1;SDS_P2;PMS_P1;PMS_P2;Temp;Humidity;BMP_temperature;BMP_pressure;BME280_temperature;BME280_humidity;BME280_pressure;Samples;Min_cycle;Max_cycle;Signal;HPM_P1;HPM_P2
2022/03/12 00:01:45;;;;;;;10.80;6.47;;;;;16.00;101122.00;;;;5042311;28;20310;-80
2022/03/12 00:04:13;;;;;;;9.68;6.25;;;;;16.00;101129.00;;;;5029383;28;20279;-81
2022/03/12 00:06:42;;;;;;;8.20;6.28;;;;;16.00;101123.00;;;;5034945;28;20196;-80
2022/03/12 00:09:09;;;;;;;7.30;5.43;;;;;16.10;101133.00;;;;5041092;28;20235;-81
2022/03/12 00:11:45;;;;;;;10.90;6.30;;;;;16.10;101133.00;;;;5040723;28;20261;-80
2022/03/12 00:14:15;;;;;;;9.20;5.65;;;;;16.10;101133.00;;;;5043624;28;20200;-80
2022/03/12 00:16:43;;;;;;;10.00;6.45;;;;;16.10;101125.00;;;;5040825;28;20200;-80
2022/03/12 00:19:10;;;;;;;8.32;6.05;;;;;16.10;101131.00;;;;5040084;28;20227;-82
2022/03/12 00:21:42;;;;;;;7.72;5.68;;;;;16.10;101129.00;;;;5042435;28;20203;-80
2022/03/12 00:24:12;;;;;;;9.10;6.28;;;;;16.10;101133.00;;;;5039692;28;20204;-81
2022/03/12 00:26:41;;;;;;;12.23;6.43;;;;;16.10;101131.00;;;;5029710;28;20305;-81
2022/03/12 00:29:14;;;;;;;10.20;6.57;;;;;16.10;101134.00;;;;5029192;28;20315;-81
2022/03/12 00:31:42;;;;;;;9.52;6.70;;;;;16.10;101133.00;;;;5031134;28;20579;-80
2022/03/12 00:34:09;;;;;;;9.50;6.53;;;;;16.10;101144.00;;;;5031997;28;20196;-80
2022/03/12 00:36:37;;;;;;;12.27;6.20;;;;;16.20;101143.00;;;;5041925;28;20555;-80
2022/03/12 00:39:04;;;;;;;12.65;6.53;;;;;16.20;101144.00;;;;5033620;28;20200;-80
2022/03/12 00:41:33;;;;;;;9.57;6.60;;;;;16.20;101142.00;;;;5041740;28;20204;-81
2022/03/12 00:44:00;;;;;;;11.63;6.05;;;;;16.20;101144.00;;;;5049595;28;20227;-81
2022/03/12 00:46:28;;;;;;;7.85;5.93;;;;;16.20;101149.00;;;;5048448;28;20191;-80
2022/03/12 00:48:55;;;;;;;9.25;5.93;;;;;16.20;101147.00;;;;5034042;28;20216;-80
2022/03/12 00:51:22;;;;;;;9.20;6.18;;;;;16.20;101149.00;;;;5039062;28;20208;-81
2022/03/12 00:53:50;;;;;;;8.13;5.90;;;;;16.20;101142.00;;;;5040568;28;20200;-80
2022/03/12 00:56:17;;;;;;;9.18;5.93;;;;;16.30;101154.00;;;;5034250;28;20721;-80
2022/03/12 00:58:47;;;;;;;9.75;6.50;;;;;16.20;101152.00;;;;5040728;28;20220;-80
2022/03/12 01:01:16;;;;;;;8.77;5.53;;;;;16.30;101153.00;;;;5030239;28;20206;-80
2022/03/12 01:03:43;;;;;;;7.53;5.78;;;;;16.20;101153.00;;;;5047240;28;20249;-80
2022/03/12 01:06:15;;;;;;;8.60;5.68;;;;;16.20;101154.00;;;;5049009;28;20204;-80
2022/03/12 01:08:42;;;;;;;7.72;5.57;;;;;16.30;101152.00;;;;5061738;28;20273;-80
2022/03/12 01:11:11;;;;;;;9.30;6.53;;;;;16.20;101162.00;;;;5038455;28;20196;-80
2022/03/12 01:13:39;;;;;;;11.80;6.75;;;;;16.20;101156.00;;;;5048536;28;20192;-81
2022/03/12 01:16:08;;;;;;;8.73;5.82;;;;;16.20;101164.00;;;;5062206;28;20202;-80
2022/03/12 01:18:39;;;;;;;10.23;6.00;;;;;16.20;101165.00;;;;5069066;28;20207;-81
2022/03/12 01:21:11;;;;;;;9.88;6.18;;;;;16.20;101167.00;;;;5047277;28;20189;-80
2022/03/12 01:23:39;;;;;;;12.77;6.18;;;;;16.30;101173.00;;;;5030442;28;20196;-80
2022/03/12 01:26:06;;;;;;;8.90;6.22;;;;;16.20;101174.00;;;;5045324;28;20287;-80
2022/03/12 01:28:35;;;;;;;9.02;6.53;;;;;16.30;101173.00;;;;5033745;28;20228;-80
2022/03/12 01:31:02;;;;;;;8.80;6.50;;;;;16.30;101172.00;;;;5029802;28;20613;-81
2022/03/12 01:33:31;;;;;;;10.77;6.35;;;;;16.30;101165.00;;;;5035661;28;20571;-80
2022/03/12 01:35:59;;;;;;;8.40;5.85;;;;;16.30;101162.00;;;;5043758;28;20748;-80
2022/03/12 01:38:31;;;;;;;10.93;6.15;;;;;16.30;101173.00;;;;5029595;28;20203;-81
2022/03/12 01:41:02;;;;;;;9.52;6.35;;;;;16.30;101165.00;;;;5041488;28;20203;-81
2022/03/12 01:43:31;;;;;;;11.20;6.93;;;;;16.30;101166.00;;;;5040721;28;20554;-81
2022/03/12 01:46:00;;;;;;;12.70;6.80;;;;;16.30;101169.00;;;;5035519;28;20633;-81
2022/03/12 01:48:30;;;;;;;8.68;6.47;;;;;16.30;101176.00;;;;5029487;28;20220;-81
2022/03/12 01:50:58;;;;;;;8.82;6.22;;;;;16.30;101180.00;;;;5032039;28;20193;-81
2022/03/12 01:53:27;;;;;;;11.68;6.18;;;;;16.20;101180.00;;;;5033615;28;20191;-81
2022/03/12 01:55:55;;;;;;;8.50;6.45;;;;;16.20;101182.00;;;;5043859;28;20286;-81
2022/03/12 01:58:24;;;;;;;10.48;7.13;;;;;16.20;101181.00;;;;5039506;28;20216;-81
2022/03/12 02:00:56;;;;;;;7.30;5.38;;;;;16.20;101184.00;;;;5036166;28;20426;-81
2022/03/12 02:03:26;;;;;;;10.73;6.35;;;;;16.20;101187.00;;;;5030598;28;20196;-80
2022/03/12 02:05:55;;;;;;;10.50;6.75;;;;;16.20;101189.00;;;;5035846;28;20208;-81
2022/03/12 02:08:22;;;;;;;9.63;6.30;;;;;16.20;101179.00;;;;5028107;28;20578;-81
2022/03/12 02:10:51;;;;;;;8.40;5.93;;;;;16.10;101183.00;;;;5037803;28;20215;-80
2022/03/12 02:13:20;;;;;;;7.47;5.90;;;;;16.10;101188.00;;;;5046903;28;20204;-81
2022/03/12 02:15:47;;;;;;;10.05;6.03;;;;;16.10;101183.00;;;;5038950;28;20203;-80
2022/03/12 02:18:15;;;;;;;10.30;6.95;;;;;16.10;101185.00;;;;5031883;28;20195;-81
2022/03/12 02:20:42;;;;;;;11.05;6.95;;;;;16.10;101182.00;;;;5045176;28;20191;-80
2022/03/12 02:23:11;;;;;;;9.90;7.15;;;;;16.10;101185.00;;;;5044331;28;20261;-80
2022/03/12 02:25:40;;;;;;;8.07;6.07;;;;;16.10;101179.00;;;;5034775;28;20211;-80
2022/03/12 02:28:17;;;;;;;10.88;6.82;;;;;16.00;101181.00;;;;5027939;28;20258;-80
2022/03/12 02:30:51;;;;;;;9.48;6.72;;;;;16.00;101180.00;;;;5032373;28;20613;-80
2022/03/12 02:33:28;;;;;;;8.25;6.03;;;;;16.00;101180.00;;;;5048595;28;20206;-80
2022/03/12 02:35:56;;;;;;;10.75;6.38;;;;;16.00;101173.00;;;;5042859;28;20211;-81
2022/03/12 02:38:27;;;;;;;10.63;7.30;;;;;16.00;101187.00;;;;5040349;28;20192;-80
2022/03/12 02:40:56;;;;;;;9.75;6.88;;;;;16.00;101180.00;;;;5031275;28;20216;-81
2022/03/12 02:43:27;;;;;;;9.85;6.28;;;;;15.90;101181.00;;;;5033294;28;20723;-80
2022/03/12 02:45:57;;;;;;;9.57;5.78;;;;;15.90;101187.00;;;;5040271;28;20205;-81
2022/03/12 02:48:25;;;;;;;8.82;6.22;;;;;15.90;101196.00;;;;5026557;28;20203;-80
2022/03/12 02:50:54;;;;;;;8.93;6.15;;;;;15.90;101189.00;;;;5028078;28;20202;-80
2022/03/12 02:53:21;;;;;;;9.02;6.40;;;;;15.90;101192.00;;;;5040959;28;20200;-81
2022/03/12 02:55:51;;;;;;;8.82;5.65;;;;;15.90;101195.00;;;;5040911;28;20282;-81
2022/03/12 02:58:19;;;;;;;10.88;6.40;;;;;15.90;101189.00;;;;5028102;28;20589;-80
2022/03/12 03:00:47;;;;;;;7.95;6.55;;;;;15.90;101187.00;;;;5033266;28;20282;-80
2022/03/12 03:03:14;;;;;;;10.10;6.32;;;;;15.90;101192.00;;;;5028337;28;20235;-80
2022/03/12 03:05:46;;;;;;;7.68;5.75;;;;;15.90;101195.00;;;;5028102;28;20201;-80
2022/03/12 03:08:18;;;;;;;8.73;5.95;;;;;15.90;101200.00;;;;5040949;28;20196;-80
2022/03/12 03:10:46;;;;;;;8.95;6.63;;;;;15.80;101209.00;;;;5031783;28;20227;-80
2022/03/12 03:13:42;;;;;;;10.02;6.32;;;;;15.80;101202.00;;;;5028301;28;20208;-81
2022/03/12 03:16:11;;;;;;;9.43;6.30;;;;;15.80;101206.00;;;;5028370;28;20717;-81
2022/03/12 03:18:41;;;;;;;11.27;7.40;;;;;15.80;101208.00;;;;5027752;28;20203;-81
2022/03/12 03:21:10;;;;;;;9.25;6.30;;;;;15.80;101215.00;;;;5027489;28;20485;-80
2022/03/12 03:23:38;;;;;;;8.15;6.28;;;;;15.80;101210.00;;;;5038874;28;20616;-81
2022/03/12 03:26:06;;;;;;;11.52;6.57;;;;;15.80;101198.00;;;;5032531;28;20200;-81
2022/03/12 03:28:34;;;;;;;8.43;6.00;;;;;15.80;101198.00;;;;5049057;28;20671;-81
2022/03/12 03:31:05;;;;;;;10.38;7.05;;;;;15.80;101203.00;;;;5036587;28;20222;-80
2022/03/12 03:33:33;;;;;;;9.10;6.63;;;;;15.80;101209.00;;;;5031783;28;20204;-81
2022/03/12 03:36:00;;;;;;;9.95;6.85;;;;;15.80;101216.00;;;;5031751;28;20196;-81
2022/03/12 03:38:28;;;;;;;11.13;7.05;;;;;15.80;101207.00;;;;5042525;28;20254;-81
2022/03/12 03:40:55;;;;;;;7.60;5.93;;;;;15.70;101215.00;;;;5031220;28;20674;-81
2022/03/12 03:43:24;;;;;;;9.90;6.75;;;;;15.70;101220.00;;;;5030582;28;20208;-81
2022/03/12 03:45:53;;;;;;;7.75;5.60;;;;;15.70;101221.00;;;;5049814;28;20195;-81
2022/03/12 03:48:24;;;;;;;9.70;6.60;;;;;15.60;101219.00;;;;5030761;28;20207;-81
2022/03/12 03:50:52;;;;;;;8.38;6.45;;;;;15.60;101227.00;;;;5031275;28;20701;-81
2022/03/12 03:53:22;;;;;;;8.80;6.00;;;;;15.50;101225.00;;;;5035760;28;20927;-81
2022/03/12 03:55:49;;;;;;;11.10;6.35;;;;;15.50;101222.00;;;;5045387;28;20215;-81
2022/03/12 03:58:17;;;;;;;7.43;5.75;;;;;15.50;101229.00;;;;5047169;28;20698;-81
2022/03/12 04:00:54;;;;;;;9.00;6.28;;;;;15.30;101235.00;;;;5032266;28;20208;-81
2022/03/12 04:03:22;;;;;;;8.88;5.65;;;;;15.40;101233.00;;;;5030346;28;20688;-81
2022/03/12 04:05:50;;;;;;;8.40;6.40;;;;;15.30;101237.00;;;;5032351;28;20196;-81
2022/03/12 04:08:17;;;;;;;7.82;6.20;;;;;15.30;101247.00;;;;5030696;28;20212;-81
2022/03/12 04:10:45;;;;;;;9.45;7.03;;;;;15.20;101244.00;;;;5042861;28;20223;-81
2022/03/12 04:13:15;;;;;;;10.20;6.43;;;;;15.20;101242.00;;;;5031841;28;20196;-81
2022/03/12 04:15:43;;;;;;;7.60;5.38;;;;;15.20;101249.00;;;;5046941;28;20573;-81
2022/03/12 04:18:11;;;;;;;9.02;6.28;;;;;15.10;101241.00;;;;5048821;28;20204;-81
2022/03/12 04:20:39;;;;;;;8.40;6.13;;;;;15.10;101250.00;;;;5051092;28;20199;-81
2022/03/12 04:23:07;;;;;;;9.77;6.40;;;;;15.00;101255.00;;;;5036816;28;20250;-81
2022/03/12 04:25:35;;;;;;;9.38;6.45;;;;;15.00;101254.00;;;;5031475;28;20204;-82
2022/03/12 04:28:04;;;;;;;7.88;5.15;;;;;15.00;101250.00;;;;5033546;28;20191;-81
2022/03/12 04:30:32;;;;;;;8.77;5.80;;;;;14.90;101257.00;;;;5032278;28;20224;-81
2022/03/12 04:32:59;;;;;;;9.05;6.47;;;;;14.90;101255.00;;;;5030622;28;20197;-81
2022/03/12 04:35:28;;;;;;;8.90;6.32;;;;;14.90;101255.00;;;;5037166;28;20201;-79
2022/03/12 04:37:56;;;;;;;9.13;6.63;;;;;14.80;101250.00;;;;5029254;28;20667;-79
2022/03/12 04:40:26;;;;;;;10.35;5.60;;;;;14.80;101253.00;;;;5038120;28;20203;-80
2022/03/12 04:42:55;;;;;;;10.30;6.43;;;;;14.80;101253.00;;;;5042179;28;20661;-80
2022/03/12 04:45:25;;;;;;;8.52;6.28;;;;;14.70;101255.00;;;;5046571;28;20620;-80
2022/03/12 04:47:54;;;;;;;8.25;6.07;;;;;14.70;101258.00;;;;5036076;28;20562;-80
2022/03/12 04:50:23;;;;;;;9.20;6.05;;;;;14.70;101258.00;;;;5041917;28;20224;-80
2022/03/12 04:52:53;;;;;;;8.52;6.18;;;;;14.60;101259.00;;;;5049371;28;20207;-80
2022/03/12 04:55:23;;;;;;;9.60;6.80;;;;;14.60;101261.00;;;;5047550;28;20254;-80
2022/03/12 04:57:51;;;;;;;9.63;6.68;;;;;14.60;101262.00;;;;5038931;28;20214;-80
2022/03/12 05:00:20;;;;;;;9.82;5.90;;;;;14.50;101269.00;;;;5037621;28;20294;-80
2022/03/12 05:02:48;;;;;;;7.97;6.07;;;;;14.50;101265.00;;;;5044073;28;20581;-80
2022/03/12 05:05:16;;;;;;;9.20;5.88;;;;;14.50;101262.00;;;;5032059;28;20192;-80
2022/03/12 05:07:45;;;;;;;7.47;5.60;;;;;14.50;101261.00;;;;5038734;28;20203;-80
2022/03/12 05:10:12;;;;;;;7.47;6.05;;;;;14.60;101262.00;;;;5028937;28;20216;-80
2022/03/12 05:12:43;;;;;;;6.88;5.28;;;;;14.50;101260.00;;;;5035108;28;20208;-79
2022/03/12 05:15:14;;;;;;;8.07;6.25;;;;;14.50;101272.00;;;;5029613;28;20667;-80
2022/03/12 05:17:43;;;;;;;7.75;5.93;;;;;14.60;101278.00;;;;5033865;28;20211;-80
2022/03/12 05:20:11;;;;;;;8.25;5.57;;;;;14.50;101280.00;;;;5030269;28;20204;-80
2022/03/12 05:22:38;;;;;;;9.02;6.05;;;;;14.50;101284.00;;;;5042640;28;20195;-81
2022/03/12 05:25:07;;;;;;;7.15;5.47;;;;;14.50;101290.00;;;;5055538;28;20689;-80
2022/03/12 05:27:34;;;;;;;7.35;5.60;;;;;14.50;101290.00;;;;5037106;28;20675;-81
2022/03/12 05:30:03;;;;;;;8.52;5.25;;;;;14.50;101294.00;;;;5030152;28;20593;-80
2022/03/12 05:32:30;;;;;;;7.85;5.60;;;;;14.50;101295.00;;;;5039822;28;20696;-80
2022/03/12 05:34:58;;;;;;;8.10;5.28;;;;;14.40;101305.00;;;;5047023;28;20208;-80
2022/03/12 05:37:25;;;;;;;7.28;5.40;;;;;14.40;101300.00;;;;5028871;28;20417;-80
2022/03/12 05:39:54;;;;;;;6.88;4.88;;;;;14.40;101295.00;;;;5033477;28;20191;-80
2022/03/12 05:42:22;;;;;;;8.13;5.25;;;;;14.40;101303.00;;;;5033882;28;20334;-81
2022/03/12 05:44:51;;;;;;;8.82;5.43;;;;;14.30;101302.00;;;;5040741;28;20228;-80
2022/03/12 05:47:20;;;;;;;6.82;4.93;;;;;14.30;101309.00;;;;5035143;28;20196;-80
2022/03/12 05:49:49;;;;;;;7.30;4.55;;;;;14.30;101308.00;;;;5046423;28;20221;-80
2022/03/12 05:52:18;;;;;;;7.47;5.03;;;;;14.30;101313.00;;;;5045604;28;20194;-80
2022/03/12 05:54:46;;;;;;;6.88;5.00;;;;;14.30;101310.00;;;;5034979;28;20202;-80
2022/03/12 05:57:14;;;;;;;6.90;4.68;;;;;14.20;101313.00;;;;5028635;28;20188;-80
2022/03/12 05:59:41;;;;;;;6.75;4.85;;;;;14.20;101310.00;;;;5032055;28;20640;-80
2022/03/12 06:02:08;;;;;;;7.22;5.10;;;;;14.20;101314.00;;;;5050509;28;20715;-80
2022/03/12 06:04:37;;;;;;;7.53;5.20;;;;;14.20;101316.00;;;;5028813;28;20188;-80
2022/03/12 06:07:05;;;;;;;8.02;5.25;;;;;14.20;101318.00;;;;5031628;28;20262;-80
2022/03/12 06:09:32;;;;;;;7.97;4.80;;;;;14.10;101311.00;;;;5039292;28;20195;-80
2022/03/12 06:12:00;;;;;;;6.10;4.07;;;;;14.10;101317.00;;;;5029450;28;20196;-80
2022/03/12 06:14:29;;;;;;;7.18;4.72;;;;;14.10;101325.00;;;;5030111;28;20295;-80
2022/03/12 06:16:56;;;;;;;6.10;4.32;;;;;14.10;101324.00;;;;5042177;28;20589;-79
2022/03/12 06:19:23;;;;;;;7.95;4.93;;;;;14.10;101331.00;;;;5033806;28;20207;-78
2022/03/12 06:21:53;;;;;;;6.63;4.93;;;;;14.10;101329.00;;;;5050886;28;20206;-79
2022/03/12 06:24:22;;;;;;;5.78;4.68;;;;;14.10;101334.00;;;;5031221;28;20207;-78
2022/03/12 06:26:49;;;;;;;5.60;4.13;;;;;14.20;101337.00;;;;5030738;28;20674;-79
2022/03/12 06:29:17;;;;;;;6.45;4.35;;;;;14.20;101343.00;;;;5028301;28;20243;-79
2022/03/12 06:31:44;;;;;;;6.50;4.68;;;;;14.30;101338.00;;;;5042471;28;20219;-79
2022/03/12 06:34:13;;;;;;;5.28;4.03;;;;;14.30;101339.00;;;;5036511;28;20227;-79
2022/03/12 06:36:44;;;;;;;5.65;4.35;;;;;14.40;101341.00;;;;5028274;28;20200;-79
2022/03/12 06:39:13;;;;;;;4.72;4.03;;;;;14.40;101335.00;;;;5028417;28;20204;-78
2022/03/12 06:41:45;;;;;;;5.38;4.13;;;;;14.40;101335.00;;;;5028592;28;20200;-79
2022/03/12 06:44:17;;;;;;;6.30;4.50;;;;;14.50;101342.00;;;;5037197;28;20716;-79
2022/03/12 06:46:45;;;;;;;5.90;3.90;;;;;14.50;101347.00;;;;5038621;28;20673;-78
2022/03/12 06:49:12;;;;;;;6.25;4.32;;;;;14.60;101351.00;;;;5042024;28;20284;-78
2022/03/12 06:51:39;;;;;;;5.72;4.18;;;;;14.60;101358.00;;;;5038156;28;20224;-78
2022/03/12 06:54:07;;;;;;;10.93;4.97;;;;;14.70;101355.00;;;;5032743;28;20584;-78
2022/03/12 06:56:39;;;;;;;6.13;4.22;;;;;14.70;101360.00;;;;5041998;28;20211;-78
2022/03/12 06:59:07;;;;;;;5.40;4.22;;;;;14.80;101366.00;;;;5044150;28;20290;-77
2022/03/12 07:01:34;;;;;;;5.30;4.18;;;;;14.80;101365.00;;;;5040105;28;20199;-80
2022/03/12 07:04:02;;;;;;;6.60;4.75;;;;;14.80;101372.00;;;;5038278;28;20203;-79
2022/03/12 07:06:29;;;;;;;7.55;4.47;;;;;14.90;101380.00;;;;5043160;28;20210;-79
2022/03/12 07:08:56;;;;;;;6.13;4.72;;;;;14.90;101383.00;;;;5037914;28;20191;-78
2022/03/12 07:11:23;;;;;;;8.95;4.32;;;;;15.00;101383.00;;;;5036181;28;20219;-79
2022/03/12 07:13:52;;;;;;;6.63;4.65;;;;;15.00;101376.00;;;;5036470;28;20228;-78
2022/03/12 07:16:19;;;;;;;6.47;3.72;;;;;15.00;101378.00;;;;5048417;28;20199;-78
2022/03/12 07:18:46;;;;;;;6.93;4.28;;;;;15.10;101385.00;;;;5039244;28;20205;-78
2022/03/12 07:21:14;;;;;;;6.57;4.38;;;;;15.10;101388.00;;;;5031564;28;20284;-78
2022/03/12 07:23:41;;;;;;;4.82;4.05;;;;;15.10;101385.00;;;;5041825;28;20196;-78
2022/03/12 07:26:09;;;;;;;6.07;4.47;;;;;15.20;101395.00;;;;5044727;28;20201;-77
2022/03/12 07:28:36;;;;;;;5.40;3.88;;;;;15.20;101391.00;;;;5041201;28;20207;-77
2022/03/12 07:31:07;;;;;;;6.10;4.45;;;;;15.30;101390.00;;;;5032437;28;20640;-77
2022/03/12 07:33:34;;;;;;;5.80;4.28;;;;;15.30;101392.00;;;;5035195;28;20192;-77
2022/03/12 07:36:01;;;;;;;6.00;4.07;;;;;15.40;101404.00;;;;5049072;28;20584;-78
2022/03/12 07:38:29;;;;;;;5.40;4.10;;;;;15.40;101405.00;;;;5051025;28;20192;-77
2022/03/12 07:40:57;;;;;;;5.05;3.92;;;;;15.40;101405.00;;;;5047719;28;20686;-78
2022/03/12 07:43:24;;;;;;;6.18;4.38;;;;;15.50;101401.00;;;;5049249;28;20696;-77
2022/03/12 07:45:51;;;;;;;4.97;3.88;;;;;15.60;101412.00;;;;5030982;28;20222;-77
2022/03/12 07:48:20;;;;;;;5.90;4.13;;;;;15.60;101414.00;;;;5030978;28;20199;-78
2022/03/12 07:50:47;;;;;;;5.03;4.03;;;;;15.70;101423.00;;;;5031404;28;20219;-78
2022/03/12 07:53:15;;;;;;;4.97;3.88;;;;;15.70;101423.00;;;;5042110;28;20203;-77
2022/03/12 07:55:42;;;;;;;5.82;4.32;;;;;15.80;101438.00;;;;5040995;28;20716;-77
2022/03/12 07:58:09;;;;;;;4.78;3.80;;;;;15.90;101429.00;;;;5046984;28;20693;-77
2022/03/12 08:00:36;;;;;;;6.47;4.53;;;;;15.90;101428.00;;;;5032340;28;20541;-78
2022/03/12 08:03:05;;;;;;;5.40;4.28;;;;;16.00;101429.00;;;;5049725;28;20187;-75
2022/03/12 08:05:33;;;;;;;5.97;4.15;;;;;16.10;101434.00;;;;5032049;28;20655;-79
2022/03/12 08:08:02;;;;;;;5.95;4.38;;;;;16.10;101444.00;;;;5034917;28;20205;-78
2022/03/12 08:11:24;;;;;;;5.50;3.85;;;;;16.20;101441.00;;;;5050827;28;20227;-78
2022/03/12 08:13:20;;;;;;;7.28;3.63;;;;;16.30;101446.00;;;;5043192;28;20844;-78
2022/03/12 08:15:48;;;;;;;4.43;3.53;;;;;16.40;101449.00;;;;5041272;28;20666;-77
2022/03/12 08:18:16;;;;;;;4.47;3.67;;;;;16.50;101444.00;;;;5049537;28;20206;-78
2022/03/12 08:20:45;;;;;;;7.22;3.70;;;;;16.50;101445.00;;;;5040994;28;20223;-78
2022/03/12 08:23:12;;;;;;;5.30;3.80;;;;;16.60;101445.00;;;;5045796;28;20253;-78
2022/03/12 08:25:40;;;;;;;5.28;3.60;;;;;16.60;101446.00;;;;5034261;28;20213;-78
2022/03/12 08:28:08;;;;;;;5.13;3.97;;;;;16.70;101455.00;;;;5040411;28;20289;-78
2022/03/12 08:30:36;;;;;;;6.35;4.18;;;;;16.80;101454.00;;;;5031711;28;20224;-77
2022/03/12 08:33:03;;;;;;;8.52;3.40;;;;;16.80;101467.00;;;;5036694;28;20218;-78
2022/03/12 08:35:31;;;;;;;5.93;3.67;;;;;16.90;101472.00;;;;5046492;28;20206;-77
2022/03/12 08:38:00;;;;;;;4.80;3.22;;;;;16.90;101472.00;;;;5055703;28;20201;-76
2022/03/12 08:40:27;;;;;;;5.45;3.33;;;;;17.00;101470.00;;;;5044051;28;21069;-76
2022/03/12 08:42:55;;;;;;;4.57;3.33;;;;;17.00;101481.00;;;;5044430;28;20200;-77
2022/03/12 08:45:22;;;;;;;4.75;3.20;;;;;17.10;101481.00;;;;5042130;28;20235;-78
2022/03/12 08:47:50;;;;;;;5.45;3.05;;;;;17.20;101473.00;;;;5043701;28;20238;-79
2022/03/12 08:50:19;;;;;;;4.15;3.05;;;;;17.20;101474.00;;;;5037296;28;20192;-80
2022/03/12 08:52:47;;;;;;;4.82;3.63;;;;;17.30;101482.00;;;;5037048;28;20199;-81
2022/03/12 08:55:15;;;;;;;4.75;3.17;;;;;17.30;101481.00;;;;5047164;28;20904;-80
2022/03/12 08:57:43;;;;;;;4.40;3.20;;;;;17.40;101479.00;;;;5031291;28;20207;-79
2022/03/12 09:00:12;;;;;;;3.78;2.92;;;;;17.50;101482.00;;;;5030094;28;20212;-81
2022/03/12 09:02:41;;;;;;;5.20;3.40;;;;;17.50;101494.00;;;;5029781;28;20788;-80
2022/03/12 09:05:12;;;;;;;3.88;2.85;;;;;17.60;101496.00;;;;5030436;28;20279;-80
2022/03/12 09:07:40;;;;;;;4.93;3.08;;;;;17.70;101496.00;;;;5038430;28;20208;-79
2022/03/12 09:10:08;;;;;;;3.80;2.78;;;;;17.80;101491.00;;;;5031155;28;20622;-79
2022/03/12 09:12:36;;;;;;;4.80;2.83;;;;;17.80;101491.00;;;;5045063;28;20241;-79
2022/03/12 09:15:04;;;;;;;3.90;2.92;;;;;18.00;101482.00;;;;5031828;28;20227;-78
2022/03/12 09:17:32;;;;;;;5.40;2.88;;;;;18.10;101490.00;;;;5030153;28;20326;-79
2022/03/12 09:19:59;;;;;;;5.53;2.92;;;;;18.20;101492.00;;;;5029591;28;20215;-79
2022/03/12 09:22:26;;;;;;;3.80;2.72;;;;;18.20;101490.00;;;;5044712;28;20204;-79
2022/03/12 09:24:53;;;;;;;4.13;2.97;;;;;18.30;101499.00;;;;5030417;28;20204;-78
2022/03/12 09:27:20;;;;;;;5.43;2.95;;;;;18.30;101494.00;;;;5048261;28;20200;-78
2022/03/12 09:29:50;;;;;;;3.60;2.53;;;;;18.30;101495.00;;;;5049407;28;20195;-77
2022/03/12 09:32:18;;;;;;;3.88;2.50;;;;;18.40;101493.00;;;;5045305;28;20226;-77
2022/03/12 09:34:45;;;;;;;4.50;2.80;;;;;18.40;101495.00;;;;5032929;28;20200;-77
2022/03/12 09:37:12;;;;;;;5.53;2.78;;;;;18.50;101495.00;;;;5038572;28;20204;-76
2022/03/12 09:39:39;;;;;;;3.72;2.60;;;;;18.60;101496.00;;;;5064662;28;20198;-76
2022/03/12 09:42:09;;;;;;;4.28;2.90;;;;;18.60;101494.00;;;;5049339;28;20215;-76
2022/03/12 09:44:36;;;;;;;5.43;2.70;;;;;18.70;101504.00;;;;5050332;28;20765;-77
2022/03/12 09:47:06;;;;;;;5.20;2.25;;;;;18.80;101501.00;;;;5048811;28;20203;-76
2022/03/12 09:49:33;;;;;;;3.67;2.85;;;;;18.90;101496.00;;;;5048784;28;20206;-76
2022/03/12 09:52:02;;;;;;;3.58;2.40;;;;;18.90;101497.00;;;;5034056;28;20224;-76
2022/03/12 09:54:30;;;;;;;2.75;2.30;;;;;19.00;101504.00;;;;5031903;28;20239;-76
2022/03/12 09:56:57;;;;;;;5.50;3.33;;;;;19.10;101495.00;;;;5047253;28;20192;-75
2022/03/12 09:59:25;;;;;;;4.07;2.90;;;;;19.10;101502.00;;;;5028493;28;20220;-75
2022/03/12 10:01:53;;;;;;;6.63;3.50;;;;;19.20;101503.00;;;;5029088;28;20243;-76
2022/03/12 10:04:22;;;;;;;4.53;2.50;;;;;19.20;101509.00;;;;5028656;28;20214;-76
2022/03/12 10:06:49;;;;;;;5.47;3.00;;;;;19.20;101517.00;;;;5028692;28;20670;-76
2022/03/12 10:09:17;;;;;;;3.40;3.00;;;;;19.30;101522.00;;;;5028655;28;20760;-76
2022/03/12 10:11:45;;;;;;;2.72;2.05;;;;;19.30;101516.00;;;;5028772;28;20220;-76
2022/03/12 10:14:12;;;;;;;3.75;2.95;;;;;19.30;101516.00;;;;5028770;28;20215;-76
2022/03/12 10:16:40;;;;;;;3.65;1.63;;;;;19.40;101524.00;;;;5028917;28;20269;-76
2022/03/12 10:19:07;;;;;;;4.10;2.05;;;;;19.40;101517.00;;;;5061532;28;20264;-76
2022/03/12 10:21:42;;;;;;;2.50;1.60;;;;;19.40;101522.00;;;;5056612;28;20612;-76
2022/03/12 10:24:09;;;;;;;3.03;1.30;;;;;19.40;101526.00;;;;5048082;28;20203;-76
2022/03/12 10:26:37;;;;;;;2.00;1.02;;;;;19.40;101530.00;;;;5036905;28;20200;-76
2022/03/12 10:29:05;;;;;;;2.13;1.27;;;;;19.40;101530.00;;;;5028750;28;20215;-75
2022/03/12 10:31:32;;;;;;;2.78;1.30;;;;;19.50;101529.00;;;;5029984;28;20240;-76
2022/03/12 10:34:15;;;;;;;2.38;1.30;;;;;19.40;101526.00;;;;5028446;28;20203;-76
2022/03/12 10:36:44;;;;;;;2.63;1.20;;;;;19.60;101530.00;;;;5028023;28;20254;-76
2022/03/12 10:39:12;;;;;;;3.90;1.65;;;;;19.70;101526.00;;;;5027633;28;20208;-77
2022/03/12 10:41:39;;;;;;;2.90;1.50;;;;;19.80;101537.00;;;;5044387;28;20204;-76
2022/03/12 10:44:07;;;;;;;3.08;1.25;;;;;19.80;101531.00;;;;5047901;28;20231;-76
2022/03/12 10:46:49;;;;;;;3.20;1.40;;;;;19.90;101536.00;;;;5085715;28;20997;-76
2022/03/12 10:49:23;;;;;;;4.22;1.30;;;;;19.90;101528.00;;;;5070965;28;20199;-76
2022/03/12 10:51:50;;;;;;;2.67;1.55;;;;;20.00;101543.00;;;;5071544;28;20198;-77
2022/03/12 10:54:17;;;;;;;4.50;1.35;;;;;20.10;101542.00;;;;5084902;28;20688;-76
2022/03/12 10:56:49;;;;;;;1.65;1.13;;;;;20.10;101535.00;;;;5085845;28;20206;-77
2022/03/12 10:59:19;;;;;;;2.83;1.23;;;;;20.20;101529.00;;;;5084935;28;20214;-77
2022/03/12 11:01:49;;;;;;;2.75;1.50;;;;;20.30;101536.00;;;;5085332;28;20342;-76
2022/03/12 11:04:22;;;;;;;2.50;1.30;;;;;20.40;101539.00;;;;5085010;28;20190;-77
2022/03/12 11:06:51;;;;;;;2.50;1.48;;;;;20.40;101535.00;;;;5066388;28;20774;-76
2022/03/12 11:09:31;;;;;;;4.05;1.67;;;;;20.50;101534.00;;;;5064533;28;20213;-76
2022/03/12 11:12:00;;;;;;;2.15;1.40;;;;;20.50;101542.00;;;;5064938;28;20199;-76
2022/03/12 11:14:31;;;;;;;3.70;2.25;;;;;20.60;101544.00;;;;5064313;28;20560;-76
2022/03/12 11:17:03;;;;;;;4.82;1.55;;;;;20.60;101536.00;;;;5064859;28;20199;-77
2022/03/12 11:19:40;;;;;;;3.60;1.45;;;;;20.60;101546.00;;;;5082835;28;20229;-76
2022/03/12 11:22:12;;;;;;;2.30;1.33;;;;;20.60;101546.00;;;;5075248;28;20321;-76
2022/03/12 11:24:48;;;;;;;6.78;1.30;;;;;20.60;101544.00;;;;5084666;28;20205;-77
2022/03/12 11:27:27;;;;;;;2.90;1.38;;;;;20.70;101549.00;;;;5083523;28;20648;-76
2022/03/12 11:30:00;;;;;;;1.58;1.20;;;;;20.70;101554.00;;;;5076008;28;20623;-77
2022/03/12 11:32:30;;;;;;;1.38;0.90;;;;;20.80;101549.00;;;;5064044;28;20199;-77
2022/03/12 11:35:06;;;;;;;1.40;1.13;;;;;20.80;101552.00;;;;5077716;28;20207;-77
2022/03/12 11:37:36;;;;;;;3.03;1.50;;;;;21.00;101549.00;;;;5068139;28;20274;-77
2022/03/12 11:40:10;;;;;;;2.78;1.40;;;;;21.00;101552.00;;;;5075252;28;20202;-77
2022/03/12 11:42:39;;;;;;;1.73;1.50;;;;;21.00;101540.00;;;;5084962;28;20202;-78
2022/03/12 11:45:09;;;;;;;5.45;1.70;;;;;21.10;101547.00;;;;5075257;28;20283;-77
2022/03/12 11:47:40;;;;;;;5.28;1.45;;;;;21.10;101549.00;;;;5067664;28;20286;-78
2022/03/12 11:50:13;;;;;;;2.92;1.15;;;;;21.20;101561.00;;;;5079779;28;20248;-79
2022/03/12 11:52:42;;;;;;;3.97;1.95;;;;;21.30;101551.00;;;;5066159;28;20227;-79
2022/03/12 11:55:18;;;;;;;2.50;1.30;;;;;21.30;101551.00;;;;5073577;28;20191;-79
2022/03/12 11:57:48;;;;;;;4.47;1.40;;;;;21.30;101555.00;;;;5056978;28;20230;-78
2022/03/12 12:00:22;;;;;;;1.95;0.95;;;;;21.30;101543.00;;;;5050680;28;20227;-79
2022/03/12 12:02:52;;;;;;;5.35;1.67;;;;;21.30;101548.00;;;;5063781;28;20198;-79
2022/03/12 12:05:22;;;;;;;2.53;1.52;;;;;21.30;101545.00;;;;5055484;28;20334;-79
2022/03/12 12:07:51;;;;;;;5.93;1.50;;;;;21.30;101559.00;;;;5064471;28;20233;-79
2022/03/12 12:10:20;;;;;;;2.75;1.50;;;;;21.40;101546.00;;;;5054190;28;20801;-80
2022/03/12 12:12:51;;;;;;;1.90;1.20;;;;;21.40;101537.00;;;;5057330;28;20230;-79
2022/03/12 12:15:20;;;;;;;3.67;1.20;;;;;21.40;101536.00;;;;5050165;28;20575;-79